sensor_id;sensor_type;location;lat;lon;timestamp;pressure;altitude;pressure_sealevel;temperature;humidity
59971;BME280;45825;45.434;9.116;2023-01-01T00:01:08;101899.03;;;8.58;100.00
59971;BME280;45825;45.434;9.116;2023-01-01T00:03:34;101899.88;;;8.58;100.00
59971;BME280;45825;45.434;9.116;2023-01-01T00:06:07;101905.13;;;8.58;100.00
59971;BME280;45825;45.434;9.116;2023-01-01T00:08:33;101915.31;;;8.74;100.00
59971;BME280;45825;45.434;9.116;2023-01-01T00:11:01;101912.72;;;8.72;100.00
59971;BME280;45825;45.434;9.116;2023-01-01T00:13:26;101912.91;;;8.61;100.00
59971;BME280;45825;45.434;9.116;2023-01-01T00:15:51;101912.25;;;8.51;100.00
59971;BME280;45825;45.434;9.116;2023-01-01T00:18:17;101912.25;;;8.50;100.00
59971;BME280;45825;45.434;9.116;2023-01-01T00:20:42;101907.66;;;8.63;100.00
59971;BME280;45825;45.434;9.116;2023-01-01T00:23:07;101914.50;;;8.70;100.00
59971;BME280;45825;45.434;9.116;2023-01-01T00:25:32;101915.25;;;8.75;100.00
59971;BME280;45825;45.434;9.116;2023-01-01T00:27:58;101895.16;;;8.74;100.00
59971;BME280;45825;45.434;9.116;2023-01-01T00:30:23;101899.84;;;8.60;100.00
59971;BME280;45825;45.434;9.116;2023-01-01T00:32:49;101905.94;;;8.62;100.00
59971;BME280;45825;45.434;9.116;2023-01-01T00:35:14;101904.91;;;8.69;100.00
59971;BME280;45825;45.434;9.116;2023-01-01T00:37:39;101899.94;;;8.55;100.00
59971;BME280;45825;45.434;9.116;2023-01-01T00:40:05;101900.75;;;8.59;100.00
59971;BME280;45825;45.434;9.116;2023-01-01T00:42:31;101898.16;;;8.56;100.00
59971;BME280;45825;45.434;9.116;2023-01-01T00:44:56;101895.69;;;8.48;100.00
59971;BME280;45825;45.434;9.116;2023-01-01T00:47:21;101896.59;;;8.47;100.00
59971;BME280;45825;45.434;9.116;2023-01-01T00:49:46;101903.56;;;8.48;100.00
59971;BME280;45825;45.434;9.116;2023-01-01T00:52:12;101908.66;;;8.56;100.00
59971;BME280;45825;45.434;9.116;2023-01-01T00:54:37;101909.84;;;8.41;100.00
59971;BME280;45825;45.434;9.116;2023-01-01T00:57:03;101920.13;;;8.51;100.00
59971;BME280;45825;45.434;9.116;2023-01-01T00:59:28;101914.94;;;8.47;100.00
59971;BME280;45825;45.434;9.116;2023-01-01T01:01:53;101908.03;;;8.43;100.00
59971;BME280;45825;45.434;9.116;2023-01-01T01:04:19;101908.06;;;8.41;100.00
59971;BME280;45825;45.434;9.116;2023-01-01T01:06:44;101905.44;;;8.41;100.00
59971;BME280;45825;45.434;9.116;2023-01-01T01:09:11;101908.81;;;8.48;100.00
59971;BME280;45825;45.434;9.116;2023-01-01T01:11:36;101907.16;;;8.44;100.00
59971;BME280;45825;45.434;9.116;2023-01-01T01:14:01;101894.03;;;8.44;100.00
59971;BME280;45825;45.434;9.116;2023-01-01T01:16:30;101891.50;;;8.39;100.00
59971;BME280;45825;45.434;9.116;2023-01-01T01:18:57;101897.72;;;8.35;100.00
59971;BME280;45825;45.434;9.116;2023-01-01T01:21:25;101901.19;;;8.34;100.00
59971;BME280;45825;45.434;9.116;2023-01-01T01:23:52;101894.13;;;8.37;100.00
59971;BME280;45825;45.434;9.116;2023-01-01T01:26:23;101889.38;;;8.58;100.00
59971;BME280;45825;45.434;9.116;2023-01-01T01:28:50;101895.66;;;8.49;100.00
59971;BME280;45825;45.434;9.116;2023-01-01T01:31:16;101903.41;;;8.56;100.00
59971;BME280;45825;45.434;9.116;2023-01-01T01:33:43;101899.88;;;8.58;100.00
59971;BME280;45825;45.434;9.116;2023-01-01T01:36:09;101902.50;;;8.58;100.00
59971;BME280;45825;45.434;9.116;2023-01-01T01:38:34;101905.94;;;8.60;100.00
59971;BME280;45825;45.434;9.116;2023-01-01T01:41:00;101906.81;;;8.62;100.00
59971;BME280;45825;45.434;9.116;2023-01-01T01:43:50;101903.47;;;8.54;100.00
59971;BME280;45825;45.434;9.116;2023-01-01T01:46:19;101896.75;;;8.39;100.00
59971;BME280;45825;45.434;9.116;2023-01-01T01:48:48;101901.91;;;8.44;100.00
59971;BME280;45825;45.434;9.116;2023-01-01T01:51:17;101899.06;;;8.55;100.00
59971;BME280;45825;45.434;9.116;2023-01-01T01:53:46;101895.03;;;8.36;100.00
59971;BME280;45825;45.434;9.116;2023-01-01T01:56:18;101893.28;;;8.37;100.00
59971;BME280;45825;45.434;9.116;2023-01-01T01:58:45;101899.28;;;8.44;100.00
59971;BME280;45825;45.434;9.116;2023-01-01T02:01:11;101900.03;;;8.52;100.00
59971;BME280;45825;45.434;9.116;2023-01-01T02:03:49;101893.88;;;8.53;100.00
59971;BME280;45825;45.434;9.116;2023-01-01T02:06:18;101900.13;;;8.44;100.00
59971;BME280;45825;45.434;9.116;2023-01-01T02:08:45;101887.22;;;8.35;100.00
59971;BME280;45825;45.434;9.116;2023-01-01T02:11:11;101878.47;;;8.34;100.00
59971;BME280;45825;45.434;9.116;2023-01-01T02:13:36;101875.63;;;8.45;100.00
59971;BME280;45825;45.434;9.116;2023-01-01T02:16:19;101875.88;;;8.33;100.00
59971;BME280;45825;45.434;9.116;2023-01-01T02:19:19;101885.59;;;8.28;100.00
59971;BME280;45825;45.434;9.116;2023-01-01T02:22:09;101868.94;;;8.30;100.00
59971;BME280;45825;45.434;9.116;2023-01-01T02:24:55;101867.72;;;8.47;100.00
59971;BME280;45825;45.434;9.116;2023-01-01T02:30:19;101860.13;;;8.34;100.00
59971;BME280;45825;45.434;9.116;2023-01-01T02:32:47;101869.72;;;8.35;100.00
59971;BME280;45825;45.434;9.116;2023-01-01T02:35:18;101862.44;;;8.48;100.00
59971;BME280;45825;45.434;9.116;2023-01-01T02:38:11;101867.00;;;8.38;100.00
59971;BME280;45825;45.434;9.116;2023-01-01T02:40:45;101859.94;;;8.44;100.00
59971;BME280;45825;45.434;9.116;2023-01-01T02:43:12;101854.63;;;8.45;100.00
59971;BME280;45825;45.434;9.116;2023-01-01T02:45:37;101867.88;;;8.41;100.00
59971;BME280;45825;45.434;9.116;2023-01-01T02:48:34;101852.25;;;8.34;100.00
59971;BME280;45825;45.434;9.116;2023-01-01T02:50:52;101856.56;;;8.37;100.00
59971;BME280;45825;45.434;9.116;2023-01-01T02:53:25;101841.66;;;8.39;100.00
59971;BME280;45825;45.434;9.116;2023-01-01T02:56:07;101840.13;;;8.27;100.00
59971;BME280;45825;45.434;9.116;2023-01-01T03:01:34;101832.16;;;8.33;100.00
59971;BME280;45825;45.434;9.116;2023-01-01T03:04:12;101838.16;;;8.38;100.00
59971;BME280;45825;45.434;9.116;2023-01-01T03:07:22;101834.31;;;8.13;100.00
59971;BME280;45825;45.434;9.116;2023-01-01T03:10:00;101838.59;;;8.17;100.00
59971;BME280;45825;45.434;9.116;2023-01-01T03:12:37;101843.91;;;8.15;100.00
59971;BME280;45825;45.434;9.116;2023-01-01T03:15:28;101836.31;;;8.00;100.00
59971;BME280;45825;45.434;9.116;2023-01-01T03:18:07;101838.56;;;8.18;100.00
59971;BME280;45825;45.434;9.116;2023-01-01T03:20:38;101847.06;;;8.31;100.00
59971;BME280;45825;45.434;9.116;2023-01-01T03:23:06;101846.13;;;8.34;100.00
59971;BME280;45825;45.434;9.116;2023-01-01T03:25:42;101851.44;;;8.31;100.00
59971;BME280;45825;45.434;9.116;2023-01-01T03:28:13;101849.81;;;8.23;100.00
59971;BME280;45825;45.434;9.116;2023-01-01T03:30:43;101840.03;;;8.33;100.00
59971;BME280;45825;45.434;9.116;2023-01-01T03:33:40;101833.69;;;8.44;100.00
59971;BME280;45825;45.434;9.116;2023-01-01T03:36:16;101846.16;;;8.32;100.00
59971;BME280;45825;45.434;9.116;2023-01-01T03:39:29;101841.91;;;8.27;100.00
59971;BME280;45825;45.434;9.116;2023-01-01T03:44:34;101843.66;;;8.26;100.00
59971;BME280;45825;45.434;9.116;2023-01-01T03:47:00;101844.66;;;8.20;100.00
59971;BME280;45825;45.434;9.116;2023-01-01T03:49:27;101856.03;;;8.21;100.00
59971;BME280;45825;45.434;9.116;2023-01-01T03:52:18;101832.59;;;8.11;100.00
59971;BME280;45825;45.434;9.116;2023-01-01T03:57:55;101850.69;;;8.25;100.00
59971;BME280;45825;45.434;9.116;2023-01-01T04:00:29;101861.28;;;8.19;100.00
59971;BME280;45825;45.434;9.116;2023-01-01T04:03:09;101851.81;;;8.12;100.00
59971;BME280;45825;45.434;9.116;2023-01-01T04:05:39;101850.16;;;8.06;100.00
59971;BME280;45825;45.434;9.116;2023-01-01T04:08:06;101851.84;;;8.10;100.00
59971;BME280;45825;45.434;9.116;2023-01-01T04:10:33;101850.94;;;8.13;100.00
59971;BME280;45825;45.434;9.116;2023-01-01T04:13:02;101845.72;;;8.11;100.00
59971;BME280;45825;45.434;9.116;2023-01-01T04:15:30;101846.69;;;8.07;100.00
59971;BME280;45825;45.434;9.116;2023-01-01T04:17:55;101844.06;;;8.07;100.00
59971;BME280;45825;45.434;9.116;2023-01-01T04:20:21;101841.38;;;8.10;100.00
59971;BME280;45825;45.434;9.116;2023-01-01T04:22:47;101843.03;;;8.15;100.00
59971;BME280;45825;45.434;9.116;2023-01-01T04:25:13;101844.91;;;8.06;100.00
59971;BME280;45825;45.434;9.116;2023-01-01T04:27:39;101832.53;;;8.15;100.00
59971;BME280;45825;45.434;9.116;2023-01-01T04:30:07;101836.84;;;8.17;100.00
59971;BME280;45825;45.434;9.116;2023-01-01T04:32:33;101836.84;;;8.19;100.00
59971;BME280;45825;45.434;9.116;2023-01-01T04:34:59;101839.56;;;8.14;100.00
59971;BME280;45825;45.434;9.116;2023-01-01T04:37:24;101845.56;;;8.19;100.00
59971;BME280;45825;45.434;9.116;2023-01-01T04:39:50;101843.00;;;8.16;100.00
59971;BME280;45825;45.434;9.116;2023-01-01T04:42:15;101837.78;;;8.15;100.00
59971;BME280;45825;45.434;9.116;2023-01-01T04:44:40;101842.34;;;8.05;100.00
59971;BME280;45825;45.434;9.116;2023-01-01T04:47:06;101834.47;;;8.05;100.00
59971;BME280;45825;45.434;9.116;2023-01-01T04:49:31;101835.50;;;7.97;100.00
59971;BME280;45825;45.434;9.116;2023-01-01T04:51:57;101831.59;;;8.19;100.00
59971;BME280;45825;45.434;9.116;2023-01-01T04:54:22;101829.00;;;8.17;100.00
59971;BME280;45825;45.434;9.116;2023-01-01T04:56:47;101828.16;;;8.15;100.00
59971;BME280;45825;45.434;9.116;2023-01-01T04:59:13;101841.44;;;8.06;100.00
59971;BME280;45825;45.434;9.116;2023-01-01T05:01:38;101836.94;;;8.13;100.00
59971;BME280;45825;45.434;9.116;2023-01-01T05:04:03;101834.31;;;8.13;100.00
59971;BME280;45825;45.434;9.116;2023-01-01T05:06:29;101834.50;;;8.03;100.00
59971;BME280;45825;45.434;9.116;2023-01-01T05:08:55;101838.59;;;8.17;100.00
59971;BME280;45825;45.434;9.116;2023-01-01T05:11:23;101840.56;;;8.05;100.00
59971;BME280;45825;45.434;9.116;2023-01-01T05:13:50;101833.75;;;7.98;100.00
59971;BME280;45825;45.434;9.116;2023-01-01T05:16:25;101841.22;;;8.17;100.00
59971;BME280;45825;45.434;9.116;2023-01-01T05:18:51;101842.94;;;8.19;100.00
59971;BME280;45825;45.434;9.116;2023-01-01T05:21:19;101850.88;;;8.15;100.00
59971;BME280;45825;45.434;9.116;2023-01-01T05:23:45;101855.13;;;8.20;100.00
59971;BME280;45825;45.434;9.116;2023-01-01T05:26:16;101860.13;;;8.33;100.00
59971;BME280;45825;45.434;9.116;2023-01-01T05:28:42;101858.38;;;8.33;100.00
59971;BME280;45825;45.434;9.116;2023-01-01T05:31:10;101857.50;;;8.34;100.00
59971;BME280;45825;45.434;9.116;2023-01-01T05:33:36;101853.13;;;8.35;100.00
59971;BME280;45825;45.434;9.116;2023-01-01T05:36:03;101854.94;;;8.31;100.00
59971;BME280;45825;45.434;9.116;2023-01-01T05:38:29;101865.34;;;8.34;100.00
59971;BME280;45825;45.434;9.116;2023-01-01T05:40:54;101865.59;;;8.22;100.00
59971;BME280;45825;45.434;9.116;2023-01-01T05:43:20;101863.84;;;8.22;100.00
59971;BME280;45825;45.434;9.116;2023-01-01T05:45:45;101860.38;;;8.22;100.00
59971;BME280;45825;45.434;9.116;2023-01-01T05:48:11;101865.53;;;8.25;100.00
59971;BME280;45825;45.434;9.116;2023-01-01T05:50:36;101865.13;;;8.03;100.00
59971;BME280;45825;45.434;9.116;2023-01-01T05:53:01;101854.47;;;8.10;100.00
59971;BME280;45825;45.434;9.116;2023-01-01T05:55:27;101855.78;;;8.32;100.00
59971;BME280;45825;45.434;9.116;2023-01-01T05:57:52;101859.44;;;8.24;100.00
59971;BME280;45825;45.434;9.116;2023-01-01T06:00:18;101850.53;;;8.32;100.00
59971;BME280;45825;45.434;9.116;2023-01-01T06:02:43;101849.09;;;8.17;100.00
59971;BME280;45825;45.434;9.116;2023-01-01T06:05:09;101844.31;;;7.93;100.00
59971;BME280;45825;45.434;9.116;2023-01-01T06:07:34;101852.44;;;8.25;100.00
59971;BME280;45825;45.434;9.116;2023-01-01T06:10:00;101853.41;;;8.21;100.00
59971;BME280;45825;45.434;9.116;2023-01-01T06:12:25;101856.94;;;8.18;100.00
59971;BME280;45825;45.434;9.116;2023-01-01T06:14:50;101864.47;;;8.34;100.00
59971;BME280;45825;45.434;9.116;2023-01-01T06:17:16;101860.19;;;8.31;100.00
59971;BME280;45825;45.434;9.116;2023-01-01T06:19:41;101871.25;;;8.46;100.00
59971;BME280;45825;45.434;9.116;2023-01-01T06:22:06;101866.09;;;8.41;100.00
59971;BME280;45825;45.434;9.116;2023-01-01T06:24:32;101871.31;;;8.43;100.00
59971;BME280;45825;45.434;9.116;2023-01-01T06:26:57;101860.91;;;8.38;100.00
59971;BME280;45825;45.434;9.116;2023-01-01T06:29:22;101870.59;;;8.36;100.00
59971;BME280;45825;45.434;9.116;2023-01-01T06:31:47;101869.72;;;8.34;100.00
59971;BME280;45825;45.434;9.116;2023-01-01T06:34:13;101865.44;;;8.30;100.00
59971;BME280;45825;45.434;9.116;2023-01-01T06:36:38;101869.88;;;8.28;100.00
59971;BME280;45825;45.434;9.116;2023-01-01T06:39:04;101866.25;;;8.33;100.00
59971;BME280;45825;45.434;9.116;2023-01-01T06:41:30;101870.88;;;8.20;100.00
59971;BME280;45825;45.434;9.116;2023-01-01T06:43:56;101878.28;;;8.44;100.00
59971;BME280;45825;45.434;9.116;2023-01-01T06:46:24;101882.66;;;8.43;100.00
59971;BME280;45825;45.434;9.116;2023-01-01T06:48:57;101889.84;;;8.35;100.00
59971;BME280;45825;45.434;9.116;2023-01-01T06:51:26;101882.00;;;8.32;100.00
59971;BME280;45825;45.434;9.116;2023-01-01T06:53:52;101880.28;;;8.31;100.00
59971;BME280;45825;45.434;9.116;2023-01-01T06:56:18;101875.13;;;8.26;100.00
59971;BME280;45825;45.434;9.116;2023-01-01T06:58:44;101877.81;;;8.24;100.00
59971;BME280;45825;45.434;9.116;2023-01-01T07:01:15;101878.63;;;8.27;100.00
59971;BME280;45825;45.434;9.116;2023-01-01T07:03:41;101874.09;;;8.35;100.00
59971;BME280;45825;45.434;9.116;2023-01-01T07:06:07;101862.09;;;8.23;100.00
59971;BME280;45825;45.434;9.116;2023-01-01T07:08:34;101869.59;;;8.42;100.00
59971;BME280;45825;45.434;9.116;2023-01-01T07:10:59;101864.47;;;8.35;100.00
59971;BME280;45825;45.434;9.116;2023-01-01T07:13:26;101865.44;;;8.30;100.00
59971;BME280;45825;45.434;9.116;2023-01-01T07:15:52;101874.84;;;8.42;100.00
59971;BME280;45825;45.434;9.116;2023-01-01T07:18:19;101871.41;;;8.38;100.00
59971;BME280;45825;45.434;9.116;2023-01-01T07:20:53;101868.00;;;8.33;100.00
59971;BME280;45825;45.434;9.116;2023-01-01T07:23:19;101871.53;;;8.32;100.00
59971;BME280;45825;45.434;9.116;2023-01-01T07:25:44;101867.09;;;8.35;100.00
59971;BME280;45825;45.434;9.116;2023-01-01T07:28:10;101873.22;;;8.34;100.00
59971;BME280;45825;45.434;9.116;2023-01-01T07:30:36;101867.97;;;8.34;100.00
59971;BME280;45825;45.434;9.116;2023-01-01T07:33:01;101871.34;;;8.39;100.00
59971;BME280;45825;45.434;9.116;2023-01-01T07:35:27;101874.88;;;8.38;100.00
59971;BME280;45825;45.434;9.116;2023-01-01T07:37:52;101876.56;;;8.43;100.00
59971;BME280;45825;45.434;9.116;2023-01-01T07:40:17;101876.34;;;8.53;100.00
59971;BME280;45825;45.434;9.116;2023-01-01T07:42:43;101879.84;;;8.54;100.00
59971;BME280;45825;45.434;9.116;2023-01-01T07:45:11;101890.19;;;8.62;100.00
59971;BME280;45825;45.434;9.116;2023-01-01T07:47:36;101880.09;;;8.42;100.00
59971;BME280;45825;45.434;9.116;2023-01-01T07:50:02;101883.44;;;8.48;100.00
59971;BME280;45825;45.434;9.116;2023-01-01T07:52:27;101885.69;;;8.24;100.00
59971;BME280;45825;45.434;9.116;2023-01-01T07:54:52;101882.66;;;8.43;100.00
59971;BME280;45825;45.434;9.116;2023-01-01T07:57:17;101891.19;;;8.55;100.00
59971;BME280;45825;45.434;9.116;2023-01-01T07:59:43;101896.41;;;8.58;100.00
59971;BME280;45825;45.434;9.116;2023-01-01T08:02:10;101889.22;;;8.22;100.00
59971;BME280;45825;45.434;9.116;2023-01-01T08:04:37;101889.97;;;8.27;100.00
59971;BME280;45825;45.434;9.116;2023-01-01T08:07:02;101887.34;;;8.27;100.00
59971;BME280;45825;45.434;9.116;2023-01-01T08:09:27;101887.59;;;8.15;100.00
59971;BME280;45825;45.434;9.116;2023-01-01T08:11:52;101896.59;;;8.01;100.00
59971;BME280;45825;45.434;9.116;2023-01-01T08:14:18;101887.50;;;8.21;100.00
59971;BME280;45825;45.434;9.116;2023-01-01T08:16:43;101887.31;;;8.30;100.00
59971;BME280;45825;45.434;9.116;2023-01-01T08:19:08;101894.94;;;8.41;100.00
59971;BME280;45825;45.434;9.116;2023-01-01T08:21:34;101897.63;;;8.38;100.00
59971;BME280;45825;45.434;9.116;2023-01-01T08:23:59;101893.25;;;8.38;100.00
59971;BME280;45825;45.434;9.116;2023-01-01T08:26:33;101891.97;;;8.60;100.00
59971;BME280;45825;45.434;9.116;2023-01-01T08:29:01;101897.84;;;8.73;100.00
59971;BME280;45825;45.434;9.116;2023-01-01T08:31:26;101900.41;;;8.74;100.00
59971;BME280;45825;45.434;9.116;2023-01-01T08:33:51;101903.19;;;8.68;100.00
59971;BME280;45825;45.434;9.116;2023-01-01T08:36:17;101900.91;;;8.49;100.00
59971;BME280;45825;45.434;9.116;2023-01-01T08:38:43;101897.81;;;8.30;100.00
59971;BME280;45825;45.434;9.116;2023-01-01T08:41:09;101898.63;;;8.32;100.00
59971;BME280;45825;45.434;9.116;2023-01-01T08:43:34;101902.78;;;8.43;100.00
59971;BME280;45825;45.434;9.116;2023-01-01T08:45:59;101899.84;;;8.60;100.00
59971;BME280;45825;45.434;9.116;2023-01-01T08:48:25;101892.81;;;8.60;100.00
59971;BME280;45825;45.434;9.116;2023-01-01T08:50:54;101887.81;;;8.48;100.00
59971;BME280;45825;45.434;9.116;2023-01-01T08:53:20;101896.41;;;8.58;100.00
59971;BME280;45825;45.434;9.116;2023-01-01T08:56:09;101907.00;;;8.53;100.00
59971;BME280;45825;45.434;9.116;2023-01-01T08:58:36;101897.09;;;8.66;100.00
59971;BME280;45825;45.434;9.116;2023-01-01T09:01:02;101903.31;;;8.62;100.00
59971;BME280;45825;45.434;9.116;2023-01-01T09:03:28;101906.81;;;8.61;100.00
59971;BME280;45825;45.434;9.116;2023-01-01T09:05:53;101901.56;;;8.61;100.00
59971;BME280;45825;45.434;9.116;2023-01-01T09:08:20;101894.59;;;8.60;100.00
59971;BME280;45825;45.434;9.116;2023-01-01T09:10:46;101896.94;;;8.74;100.00
59971;BME280;45825;45.434;9.116;2023-01-01T09:13:13;101897.59;;;8.84;100.00
59971;BME280;45825;45.434;9.116;2023-01-01T09:15:39;101904.72;;;8.78;100.00
59971;BME280;45825;45.434;9.116;2023-01-01T09:18:07;101908.47;;;8.66;100.00
59971;BME280;45825;45.434;9.116;2023-01-01T09:20:32;101907.81;;;8.55;100.00
59971;BME280;45825;45.434;9.116;2023-01-01T09:22:57;101902.22;;;8.72;100.00
59971;BME280;45825;45.434;9.116;2023-01-01T09:25:23;101901.47;;;8.67;100.00
59971;BME280;45825;45.434;9.116;2023-01-01T09:27:48;101898.84;;;8.67;100.00
59971;BME280;45825;45.434;9.116;2023-01-01T09:30:13;101918.06;;;8.68;100.00
59971;BME280;45825;45.434;9.116;2023-01-01T09:32:39;101914.50;;;8.70;100.00
59971;BME280;45825;45.434;9.116;2023-01-01T09:35:05;101913.00;;;8.58;100.00
59971;BME280;45825;45.434;9.116;2023-01-01T09:37:31;101911.84;;;8.72;100.00
59971;BME280;45825;45.434;9.116;2023-01-01T09:39:56;101906.44;;;8.79;100.00
59971;BME280;45825;45.434;9.116;2023-01-01T09:42:39;101911.09;;;8.65;100.00
59971;BME280;45825;45.434;9.116;2023-01-01T09:45:27;101907.22;;;8.83;100.00
59971;BME280;45825;45.434;9.116;2023-01-01T09:48:09;101913.41;;;8.80;100.00
59971;BME280;45825;45.434;9.116;2023-01-01T09:50:39;101917.22;;;8.67;100.00
59971;BME280;45825;45.434;9.116;2023-01-01T09:53:17;101909.72;;;8.89;100.00
59971;BME280;45825;45.434;9.116;2023-01-01T09:55:57;101908.91;;;8.86;100.00
59971;BME280;45825;45.434;9.116;2023-01-01T09:58:25;101905.16;;;8.98;100.00
59971;BME280;45825;45.434;9.116;2023-01-01T10:00:54;101905.19;;;8.96;100.00
59971;BME280;45825;45.434;9.116;2023-01-01T10:06:23;101907.97;;;8.90;100.00
59971;BME280;45825;45.434;9.116;2023-01-01T10:09:16;101900.94;;;8.90;100.00
59971;BME280;45825;45.434;9.116;2023-01-01T10:12:29;101895.41;;;9.03;100.00
59971;BME280;45825;45.434;9.116;2023-01-01T10:15:03;101888.81;;;8.85;100.00
59971;BME280;45825;45.434;9.116;2023-01-01T10:17:37;101894.78;;;8.91;100.00
59971;BME280;45825;45.434;9.116;2023-01-01T10:20:49;101894.00;;;8.88;100.00
59971;BME280;45825;45.434;9.116;2023-01-01T10:23:23;101889.59;;;8.90;100.00
59971;BME280;45825;45.434;9.116;2023-01-01T10:25:49;101894.84;;;8.90;100.00
59971;BME280;45825;45.434;9.116;2023-01-01T10:31:24;101876.50;;;8.87;100.00
59971;BME280;45825;45.434;9.116;2023-01-01T10:33:50;101874.09;;;8.77;100.00
59971;BME280;45825;45.434;9.116;2023-01-01T10:36:18;101877.50;;;8.83;100.00
59971;BME280;45825;45.434;9.116;2023-01-01T10:38:44;101871.38;;;8.82;100.00
59971;BME280;45825;45.434;9.116;2023-01-01T10:41:10;101867.19;;;8.73;100.00
59971;BME280;45825;45.434;9.116;2023-01-01T10:43:36;101864.38;;;8.83;100.00
59971;BME280;45825;45.434;9.116;2023-01-01T16:11:05;101758.63;;;8.36;100.00
59971;BME280;45825;45.434;9.116;2023-01-01T16:13:30;101744.25;;;8.55;100.00
59971;BME280;45825;45.434;9.116;2023-01-01T16:15:57;101741.59;;;8.58;100.00
59971;BME280;45825;45.434;9.116;2023-01-01T16:18:27;101738.75;;;8.67;100.00
59971;BME280;45825;45.434;9.116;2023-01-01T16:20:54;101754.19;;;8.79;100.00
59971;BME280;45825;45.434;9.116;2023-01-01T16:23:20;101756.09;;;9.09;100.00
59971;BME280;45825;45.434;9.116;2023-01-01T16:25:45;101756.19;;;9.06;100.00
59971;BME280;45825;45.434;9.116;2023-01-01T16:28:11;101756.69;;;9.20;100.00
59971;BME280;45825;45.434;9.116;2023-01-01T16:30:36;101754.31;;;9.09;100.00
59971;BME280;45825;45.434;9.116;2023-01-01T16:33:04;101755.34;;;9.04;100.00
59971;BME280;45825;45.434;9.116;2023-01-01T16:35:33;101768.91;;;9.21;100.00
59971;BME280;45825;45.434;9.116;2023-01-01T16:37:58;101770.50;;;9.27;100.00
59971;BME280;45825;45.434;9.116;2023-01-01T16:40:24;101772.25;;;9.28;100.00
59971;BME280;45825;45.434;9.116;2023-01-01T16:42:49;101769.78;;;9.22;100.00
59971;BME280;45825;45.434;9.116;2023-01-01T16:45:17;101762.53;;;9.32;100.00
59971;BME280;45825;45.434;9.116;2023-01-01T16:47:44;101760.03;;;9.26;100.00
59971;BME280;45825;45.434;9.116;2023-01-01T16:50:10;101757.50;;;9.22;100.00
59971;BME280;45825;45.434;9.116;2023-01-01T16:52:35;101764.66;;;9.17;100.00
59971;BME280;45825;45.434;9.116;2023-01-01T16:55:01;101753.81;;;9.30;100.00
59971;BME280;45825;45.434;9.116;2023-01-01T16:57:26;101760.88;;;9.28;100.00
59971;BME280;45825;45.434;9.116;2023-01-01T16:59:51;101759.16;;;9.27;100.00
59971;BME280;45825;45.434;9.116;2023-01-01T17:02:16;101755.66;;;9.26;100.00
59971;BME280;45825;45.434;9.116;2023-01-01T17:04:42;101759.97;;;9.29;100.00
59971;BME280;45825;45.434;9.116;2023-01-01T17:07:07;101767.22;;;9.19;100.00
59971;BME280;45825;45.434;9.116;2023-01-01T17:09:32;101758.28;;;9.26;100.00
59971;BME280;45825;45.434;9.116;2023-01-01T17:11:58;101767.16;;;9.22;100.00
59971;BME280;45825;45.434;9.116;2023-01-01T17:14:23;101761.84;;;9.23;100.00
59971;BME280;45825;45.434;9.116;2023-01-01T17:16:48;101768.28;;;9.12;100.00
59971;BME280;45825;45.434;9.116;2023-01-01T17:19:17;101767.31;;;9.16;100.00
59971;BME280;45825;45.434;9.116;2023-01-01T17:21:42;101764.72;;;9.14;100.00
59971;BME280;45825;45.434;9.116;2023-01-01T17:24:08;101772.47;;;9.19;100.00
59971;BME280;45825;45.434;9.116;2023-01-01T17:26:33;101775.53;;;9.36;100.00
59971;BME280;45825;45.434;9.116;2023-01-01T17:28:59;101768.75;;;9.28;100.00
59971;BME280;45825;45.434;9.116;2023-01-01T17:31:24;101768.13;;;9.18;100.00
59971;BME280;45825;45.434;9.116;2023-01-01T17:33:50;101768.00;;;9.22;100.00
59971;BME280;45825;45.434;9.116;2023-01-01T17:36:16;101775.97;;;9.19;100.00
59971;BME280;45825;45.434;9.116;2023-01-01T17:38:41;101774.25;;;9.18;100.00
59971;BME280;45825;45.434;9.116;2023-01-01T17:41:13;101770.25;;;9.03;100.00
59971;BME280;45825;45.434;9.116;2023-01-01T17:43:41;101761.81;;;9.25;100.00
59971;BME280;45825;45.434;9.116;2023-01-01T17:48:34;101768.03;;;9.21;100.00
59971;BME280;45825;45.434;9.116;2023-01-01T17:51:03;101765.59;;;9.15;100.00
59971;BME280;45825;45.434;9.116;2023-01-01T17:53:29;101768.22;;;9.13;100.00
59971;BME280;45825;45.434;9.116;2023-01-01T17:55:55;101775.63;;;9.33;100.00
59971;BME280;45825;45.434;9.116;2023-01-01T17:58:21;101766.84;;;9.34;100.00
59971;BME280;45825;45.434;9.116;2023-01-01T18:00:46;101773.84;;;9.34;100.00
59971;BME280;45825;45.434;9.116;2023-01-01T18:03:13;101771.63;;;9.18;100.00
59971;BME280;45825;45.434;9.116;2023-01-01T18:05:39;101774.19;;;9.20;100.00
59971;BME280;45825;45.434;9.116;2023-01-01T18:08:04;101775.91;;;9.21;100.00
59971;BME280;45825;45.434;9.116;2023-01-01T18:10:30;101776.66;;;9.28;100.00
59971;BME280;45825;45.434;9.116;2023-01-01T18:12:56;101778.25;;;9.33;100.00
59971;BME280;45825;45.434;9.116;2023-01-01T18:15:22;101780.13;;;9.28;100.00
59971;BME280;45825;45.434;9.116;2023-01-01T18:17:47;101778.53;;;9.21;100.00
59971;BME280;45825;45.434;9.116;2023-01-01T18:20:13;101779.63;;;9.14;100.00
59971;BME280;45825;45.434;9.116;2023-01-01T18:22:38;101779.56;;;9.15;100.00
59971;BME280;45825;45.434;9.116;2023-01-01T18:25:04;101785.34;;;9.30;100.00
59971;BME280;45825;45.434;9.116;2023-01-01T18:27:30;101779.16;;;9.32;100.00
59971;BME280;45825;45.434;9.116;2023-01-01T18:29:55;101780.94;;;9.30;100.00
59971;BME280;45825;45.434;9.116;2023-01-01T18:32:20;101770.41;;;9.32;100.00
59971;BME280;45825;45.434;9.116;2023-01-01T18:34:46;101773.06;;;9.30;100.00
59971;BME280;45825;45.434;9.116;2023-01-01T18:37:12;101780.41;;;9.17;100.00
59971;BME280;45825;45.434;9.116;2023-01-01T18:39:38;101780.34;;;9.19;100.00
59971;BME280;45825;45.434;9.116;2023-01-01T18:44:31;101781.00;;;9.29;100.00